sensor_id;sensor_type;location;lat;lon;timestamp;pressure;altitude;pressure_sealevel;temperature
15626;BMP180;7912;51.376;6.126;2023-04-27T00:02:02;101733.00;;;9.30
15626;BMP180;7912;51.376;6.126;2023-04-27T00:04:29;101735.00;;;9.30
15626;BMP180;7912;51.376;6.126;2023-04-27T00:06:58;101737.00;;;9.20
15626;BMP180;7912;51.376;6.126;2023-04-27T00:09:25;101728.00;;;9.20
15626;BMP180;7912;51.376;6.126;2023-04-27T00:11:52;101742.00;;;9.20
15626;BMP180;7912;51.376;6.126;2023-04-27T00:14:19;101743.00;;;9.20
15626;BMP180;7912;51.376;6.126;2023-04-27T00:16:47;101745.00;;;9.10
15626;BMP180;7912;51.376;6.126;2023-04-27T00:23:24;101751.00;;;9.00
15626;BMP180;7912;51.376;6.126;2023-04-27T00:25:52;101750.00;;;8.90
15626;BMP180;7912;51.376;6.126;2023-04-27T00:28:19;101755.00;;;8.90
15626;BMP180;7912;51.376;6.126;2023-04-27T00:30:46;101749.00;;;8.90
15626;BMP180;7912;51.376;6.126;2023-04-27T00:33:15;101737.00;;;8.80
15626;BMP180;7912;51.376;6.126;2023-04-27T00:35:43;101734.00;;;8.80
15626;BMP180;7912;51.376;6.126;2023-04-27T00:38:10;101743.00;;;8.80
15626;BMP180;7912;51.376;6.126;2023-04-27T00:40:38;101748.00;;;8.80
15626;BMP180;7912;51.376;6.126;2023-04-27T00:43:05;101741.00;;;8.70
15626;BMP180;7912;51.376;6.126;2023-04-27T00:45:40;101743.00;;;8.70
15626;BMP180;7912;51.376;6.126;2023-04-27T00:48:10;101745.00;;;8.70
15626;BMP180;7912;51.376;6.126;2023-04-27T00:50:38;101742.00;;;8.70
15626;BMP180;7912;51.376;6.126;2023-04-27T00:53:06;101741.00;;;8.60
15626;BMP180;7912;51.376;6.126;2023-04-27T00:55:33;101731.00;;;8.60
15626;BMP180;7912;51.376;6.126;2023-04-27T00:58:01;101741.00;;;8.60
15626;BMP180;7912;51.376;6.126;2023-04-27T01:00:28;101747.00;;;8.60
15626;BMP180;7912;51.376;6.126;2023-04-27T01:03:03;101746.00;;;8.60
15626;BMP180;7912;51.376;6.126;2023-04-27T01:05:30;101748.00;;;8.60
15626;BMP180;7912;51.376;6.126;2023-04-27T01:07:58;101743.00;;;8.50
15626;BMP180;7912;51.376;6.126;2023-04-27T01:10:25;101743.00;;;8.50
15626;BMP180;7912;51.376;6.126;2023-04-27T01:12:53;101744.00;;;8.50
15626;BMP180;7912;51.376;6.126;2023-04-27T01:15:20;101743.00;;;8.50
15626;BMP180;7912;51.376;6.126;2023-04-27T01:17:47;101733.00;;;8.50
15626;BMP180;7912;51.376;6.126;2023-04-27T01:20:14;101740.00;;;8.40
15626;BMP180;7912;51.376;6.126;2023-04-27T01:22:42;101739.00;;;8.40
15626;BMP180;7912;51.376;6.126;2023-04-27T01:25:09;101748.00;;;8.40
15626;BMP180;7912;51.376;6.126;2023-04-27T01:27:36;101749.00;;;8.40
15626;BMP180;7912;51.376;6.126;2023-04-27T01:30:04;101748.00;;;8.40
15626;BMP180;7912;51.376;6.126;2023-04-27T01:32:32;101732.00;;;8.40
15626;BMP180;7912;51.376;6.126;2023-04-27T01:34:59;101744.00;;;8.30
15626;BMP180;7912;51.376;6.126;2023-04-27T01:37:27;101744.00;;;8.40
15626;BMP180;7912;51.376;6.126;2023-04-27T01:39:54;101742.00;;;8.30
15626;BMP180;7912;51.376;6.126;2023-04-27T01:42:21;101747.00;;;8.30
15626;BMP180;7912;51.376;6.126;2023-04-27T01:44:48;101742.00;;;8.30
15626;BMP180;7912;51.376;6.126;2023-04-27T01:47:16;101762.00;;;8.30
15626;BMP180;7912;51.376;6.126;2023-04-27T01:49:43;101741.00;;;8.30
15626;BMP180;7912;51.376;6.126;2023-04-27T01:52:10;101744.00;;;8.30
15626;BMP180;7912;51.376;6.126;2023-04-27T01:54:38;101750.00;;;8.20
15626;BMP180;7912;51.376;6.126;2023-04-27T01:57:05;101757.00;;;8.20
15626;BMP180;7912;51.376;6.126;2023-04-27T01:59:33;101745.00;;;8.20
15626;BMP180;7912;51.376;6.126;2023-04-27T02:02:00;101745.00;;;8.10
15626;BMP180;7912;51.376;6.126;2023-04-27T02:04:27;101740.00;;;8.10
15626;BMP180;7912;51.376;6.126;2023-04-27T02:06:55;101749.00;;;8.10
15626;BMP180;7912;51.376;6.126;2023-04-27T02:09:22;101752.00;;;8.10
15626;BMP180;7912;51.376;6.126;2023-04-27T02:11:50;101751.00;;;8.10
15626;BMP180;7912;51.376;6.126;2023-04-27T02:14:17;101744.00;;;8.10
15626;BMP180;7912;51.376;6.126;2023-04-27T02:16:44;101752.00;;;8.00
15626;BMP180;7912;51.376;6.126;2023-04-27T02:19:11;101753.00;;;8.00
15626;BMP180;7912;51.376;6.126;2023-04-27T02:21:39;101758.00;;;8.00
15626;BMP180;7912;51.376;6.126;2023-04-27T02:24:08;101749.00;;;8.00
15626;BMP180;7912;51.376;6.126;2023-04-27T02:26:36;101756.00;;;8.00
15626;BMP180;7912;51.376;6.126;2023-04-27T02:29:03;101743.00;;;8.00
15626;BMP180;7912;51.376;6.126;2023-04-27T02:31:31;101744.00;;;7.90
15626;BMP180;7912;51.376;6.126;2023-04-27T02:33:58;101747.00;;;7.90
15626;BMP180;7912;51.376;6.126;2023-04-27T02:36:26;101735.00;;;7.90
15626;BMP180;7912;51.376;6.126;2023-04-27T02:38:54;101733.00;;;7.80
15626;BMP180;7912;51.376;6.126;2023-04-27T02:41:21;101739.00;;;7.80
15626;BMP180;7912;51.376;6.126;2023-04-27T02:43:49;101718.00;;;7.80
15626;BMP180;7912;51.376;6.126;2023-04-27T02:46:17;101723.00;;;7.80
15626;BMP180;7912;51.376;6.126;2023-04-27T02:48:44;101718.00;;;7.70
15626;BMP180;7912;51.376;6.126;2023-04-27T02:51:11;101724.00;;;7.70
15626;BMP180;7912;51.376;6.126;2023-04-27T02:53:39;101707.00;;;7.70
15626;BMP180;7912;51.376;6.126;2023-04-27T02:56:06;101713.00;;;7.60
15626;BMP180;7912;51.376;6.126;2023-04-27T02:58:33;101722.00;;;7.60
15626;BMP180;7912;51.376;6.126;2023-04-27T03:01:01;101719.00;;;7.60
15626;BMP180;7912;51.376;6.126;2023-04-27T03:03:28;101722.00;;;7.50
15626;BMP180;7912;51.376;6.126;2023-04-27T03:05:56;101720.00;;;7.50
15626;BMP180;7912;51.376;6.126;2023-04-27T03:08:23;101720.00;;;7.50
15626;BMP180;7912;51.376;6.126;2023-04-27T03:10:50;101733.00;;;7.50
15626;BMP180;7912;51.376;6.126;2023-04-27T03:13:17;101723.00;;;7.50
15626;BMP180;7912;51.376;6.126;2023-04-27T03:15:45;101737.00;;;7.40
15626;BMP180;7912;51.376;6.126;2023-04-27T03:18:15;101731.00;;;7.40
15626;BMP180;7912;51.376;6.126;2023-04-27T03:20:42;101724.00;;;7.40
15626;BMP180;7912;51.376;6.126;2023-04-27T03:23:09;101726.00;;;7.40
15626;BMP180;7912;51.376;6.126;2023-04-27T03:25:37;101720.00;;;7.30
15626;BMP180;7912;51.376;6.126;2023-04-27T03:28:26;101738.00;;;7.30
15626;BMP180;7912;51.376;6.126;2023-04-27T03:30:53;101728.00;;;7.30
15626;BMP180;7912;51.376;6.126;2023-04-27T03:33:23;101726.00;;;7.30
15626;BMP180;7912;51.376;6.126;2023-04-27T03:35:57;101723.00;;;7.20
15626;BMP180;7912;51.376;6.126;2023-04-27T03:38:25;101720.00;;;7.20
15626;BMP180;7912;51.376;6.126;2023-04-27T03:40:53;101725.00;;;7.20
15626;BMP180;7912;51.376;6.126;2023-04-27T03:43:20;101728.00;;;7.20
15626;BMP180;7912;51.376;6.126;2023-04-27T03:45:48;101732.00;;;7.20
15626;BMP180;7912;51.376;6.126;2023-04-27T03:48:16;101737.00;;;7.10
15626;BMP180;7912;51.376;6.126;2023-04-27T03:50:47;101726.00;;;7.10
15626;BMP180;7912;51.376;6.126;2023-04-27T03:53:14;101741.00;;;7.10
15626;BMP180;7912;51.376;6.126;2023-04-27T03:55:43;101736.00;;;7.10
15626;BMP180;7912;51.376;6.126;2023-04-27T03:58:11;101751.00;;;7.10
15626;BMP180;7912;51.376;6.126;2023-04-27T04:00:39;101754.00;;;7.10
15626;BMP180;7912;51.376;6.126;2023-04-27T04:03:06;101756.00;;;7.10
15626;BMP180;7912;51.376;6.126;2023-04-27T04:05:34;101749.00;;;7.10
15626;BMP180;7912;51.376;6.126;2023-04-27T04:08:02;101753.00;;;7.10
15626;BMP180;7912;51.376;6.126;2023-04-27T04:10:29;101750.00;;;7.00
15626;BMP180;7912;51.376;6.126;2023-04-27T04:12:56;101738.00;;;7.10
15626;BMP180;7912;51.376;6.126;2023-04-27T04:15:24;101730.00;;;7.00
15626;BMP180;7912;51.376;6.126;2023-04-27T04:17:51;101744.00;;;7.00
15626;BMP180;7912;51.376;6.126;2023-04-27T04:20:18;101752.00;;;7.00
15626;BMP180;7912;51.376;6.126;2023-04-27T04:22:45;101756.00;;;7.00
15626;BMP180;7912;51.376;6.126;2023-04-27T04:25:13;101763.00;;;7.00
15626;BMP180;7912;51.376;6.126;2023-04-27T04:27:40;101740.00;;;7.00
15626;BMP180;7912;51.376;6.126;2023-04-27T04:30:08;101752.00;;;7.00
15626;BMP180;7912;51.376;6.126;2023-04-27T04:32:35;101758.00;;;7.00
15626;BMP180;7912;51.376;6.126;2023-04-27T04:35:06;101745.00;;;7.00
15626;BMP180;7912;51.376;6.126;2023-04-27T04:37:34;101761.00;;;7.00
15626;BMP180;7912;51.376;6.126;2023-04-27T04:40:06;101764.00;;;7.00
15626;BMP180;7912;51.376;6.126;2023-04-27T04:42:37;101758.00;;;7.10
15626;BMP180;7912;51.376;6.126;2023-04-27T04:45:05;101766.00;;;7.10
15626;BMP180;7912;51.376;6.126;2023-04-27T04:47:33;101773.00;;;7.10
15626;BMP180;7912;51.376;6.126;2023-04-27T04:50:01;101776.00;;;7.10
15626;BMP180;7912;51.376;6.126;2023-04-27T04:52:28;101782.00;;;7.10
15626;BMP180;7912;51.376;6.126;2023-04-27T04:54:55;101780.00;;;7.20
15626;BMP180;7912;51.376;6.126;2023-04-27T04:57:25;101779.00;;;7.20
15626;BMP180;7912;51.376;6.126;2023-04-27T04:59:53;101770.00;;;7.20
15626;BMP180;7912;51.376;6.126;2023-04-27T05:02:22;101770.00;;;7.20
15626;BMP180;7912;51.376;6.126;2023-04-27T05:04:50;101773.00;;;7.30
15626;BMP180;7912;51.376;6.126;2023-04-27T05:07:20;101768.00;;;7.30
15626;BMP180;7912;51.376;6.126;2023-04-27T05:09:51;101779.00;;;7.40
15626;BMP180;7912;51.376;6.126;2023-04-27T05:12:18;101779.00;;;7.40
15626;BMP180;7912;51.376;6.126;2023-04-27T05:14:45;101780.00;;;7.50
15626;BMP180;7912;51.376;6.126;2023-04-27T05:17:13;101776.00;;;7.50
15626;BMP180;7912;51.376;6.126;2023-04-27T05:19:40;101777.00;;;7.50
15626;BMP180;7912;51.376;6.126;2023-04-27T05:22:08;101788.00;;;7.60
15626;BMP180;7912;51.376;6.126;2023-04-27T05:24:35;101769.00;;;7.60
15626;BMP180;7912;51.376;6.126;2023-04-27T05:27:03;101790.00;;;7.70
15626;BMP180;7912;51.376;6.126;2023-04-27T05:33:49;101791.00;;;7.80
15626;BMP180;7912;51.376;6.126;2023-04-27T05:36:16;101786.00;;;7.80
15626;BMP180;7912;51.376;6.126;2023-04-27T05:38:43;101783.00;;;7.90
15626;BMP180;7912;51.376;6.126;2023-04-27T05:41:11;101793.00;;;8.00
15626;BMP180;7912;51.376;6.126;2023-04-27T05:43:38;101794.00;;;8.10
15626;BMP180;7912;51.376;6.126;2023-04-27T05:46:06;101793.00;;;8.10
15626;BMP180;7912;51.376;6.126;2023-04-27T05:48:33;101807.00;;;8.20
15626;BMP180;7912;51.376;6.126;2023-04-27T05:51:02;101790.00;;;8.30
15626;BMP180;7912;51.376;6.126;2023-04-27T05:53:32;101793.00;;;8.30
15626;BMP180;7912;51.376;6.126;2023-04-27T05:56:00;101784.00;;;8.40
15626;BMP180;7912;51.376;6.126;2023-04-27T05:58:27;101797.00;;;8.50
15626;BMP180;7912;51.376;6.126;2023-04-27T06:00:54;101793.00;;;8.60
15626;BMP180;7912;51.376;6.126;2023-04-27T06:03:23;101795.00;;;8.70
15626;BMP180;7912;51.376;6.126;2023-04-27T06:05:55;101786.00;;;8.70
15626;BMP180;7912;51.376;6.126;2023-04-27T06:08:25;101797.00;;;8.80
15626;BMP180;7912;51.376;6.126;2023-04-27T06:10:53;101799.00;;;8.90
15626;BMP180;7912;51.376;6.126;2023-04-27T06:13:24;101795.00;;;9.00
15626;BMP180;7912;51.376;6.126;2023-04-27T06:15:51;101795.00;;;9.00
15626;BMP180;7912;51.376;6.126;2023-04-27T06:18:19;101781.00;;;9.10
15626;BMP180;7912;51.376;6.126;2023-04-27T06:20:46;101785.00;;;9.20
15626;BMP180;7912;51.376;6.126;2023-04-27T06:23:13;101786.00;;;9.30
15626;BMP180;7912;51.376;6.126;2023-04-27T06:25:40;101779.00;;;9.30
15626;BMP180;7912;51.376;6.126;2023-04-27T06:28:08;101784.00;;;9.40
15626;BMP180;7912;51.376;6.126;2023-04-27T06:30:38;101798.00;;;9.50
15626;BMP180;7912;51.376;6.126;2023-04-27T06:33:08;101787.00;;;9.60
15626;BMP180;7912;51.376;6.126;2023-04-27T06:35:38;101787.00;;;9.70
15626;BMP180;7912;51.376;6.126;2023-04-27T06:38:07;101798.00;;;9.80
15626;BMP180;7912;51.376;6.126;2023-04-27T06:40:36;101796.00;;;9.80
15626;BMP180;7912;51.376;6.126;2023-04-27T06:43:04;101782.00;;;10.00
15626;BMP180;7912;51.376;6.126;2023-04-27T06:45:31;101790.00;;;10.10
15626;BMP180;7912;51.376;6.126;2023-04-27T06:48:00;101796.00;;;10.20
15626;BMP180;7912;51.376;6.126;2023-04-27T06:50:28;101802.00;;;10.30
15626;BMP180;7912;51.376;6.126;2023-04-27T06:52:56;101789.00;;;10.40
15626;BMP180;7912;51.376;6.126;2023-04-27T06:55:24;101781.00;;;10.60
15626;BMP180;7912;51.376;6.126;2023-04-27T06:57:54;101786.00;;;10.80
15626;BMP180;7912;51.376;6.126;2023-04-27T07:00:31;101792.00;;;11.20
15626;BMP180;7912;51.376;6.126;2023-04-27T07:02:58;101774.00;;;11.40
15626;BMP180;7912;51.376;6.126;2023-04-27T07:05:26;101775.00;;;11.80
15626;BMP180;7912;51.376;6.126;2023-04-27T07:07:53;101774.00;;;12.30
15626;BMP180;7912;51.376;6.126;2023-04-27T07:10:20;101772.00;;;12.60
15626;BMP180;7912;51.376;6.126;2023-04-27T07:12:48;101776.00;;;13.00
15626;BMP180;7912;51.376;6.126;2023-04-27T07:15:15;101770.00;;;13.20
15626;BMP180;7912;51.376;6.126;2023-04-27T07:17:43;101774.00;;;13.40
15626;BMP180;7912;51.376;6.126;2023-04-27T07:20:10;101771.00;;;13.60
15626;BMP180;7912;51.376;6.126;2023-04-27T07:22:40;101764.00;;;13.90
15626;BMP180;7912;51.376;6.126;2023-04-27T07:25:08;101777.00;;;14.10
15626;BMP180;7912;51.376;6.126;2023-04-27T07:27:36;101774.00;;;14.40
15626;BMP180;7912;51.376;6.126;2023-04-27T07:30:04;101758.00;;;14.70
15626;BMP180;7912;51.376;6.126;2023-04-27T07:32:41;101765.00;;;15.00
15626;BMP180;7912;51.376;6.126;2023-04-27T07:35:12;101759.00;;;15.40
15626;BMP180;7912;51.376;6.126;2023-04-27T07:37:40;101761.00;;;15.80
15626;BMP180;7912;51.376;6.126;2023-04-27T07:40:09;101758.00;;;16.20
15626;BMP180;7912;51.376;6.126;2023-04-27T07:42:43;101746.00;;;16.50
15626;BMP180;7912;51.376;6.126;2023-04-27T07:45:12;101749.00;;;16.80
15626;BMP180;7912;51.376;6.126;2023-04-27T07:47:40;101751.00;;;17.10
15626;BMP180;7912;51.376;6.126;2023-04-27T07:50:09;101755.00;;;17.50
15626;BMP180;7912;51.376;6.126;2023-04-27T07:52:37;101749.00;;;18.00
15626;BMP180;7912;51.376;6.126;2023-04-27T07:55:05;101735.00;;;18.30
15626;BMP180;7912;51.376;6.126;2023-04-27T07:57:32;101742.00;;;18.40
15626;BMP180;7912;51.376;6.126;2023-04-27T08:00:00;101741.00;;;18.40
15626;BMP180;7912;51.376;6.126;2023-04-27T08:02:28;101742.00;;;18.40
15626;BMP180;7912;51.376;6.126;2023-04-27T08:05:00;101743.00;;;18.00
15626;BMP180;7912;51.376;6.126;2023-04-27T08:07:29;101743.00;;;17.60
15626;BMP180;7912;51.376;6.126;2023-04-27T08:09:58;101753.00;;;17.30
15626;BMP180;7912;51.376;6.126;2023-04-27T08:12:25;101747.00;;;17.00
15626;BMP180;7912;51.376;6.126;2023-04-27T08:14:53;101739.00;;;16.80
15626;BMP180;7912;51.376;6.126;2023-04-27T08:17:20;101742.00;;;16.60
15626;BMP180;7912;51.376;6.126;2023-04-27T08:19:48;101731.00;;;16.50
15626;BMP180;7912;51.376;6.126;2023-04-27T08:22:15;101745.00;;;16.30
15626;BMP180;7912;51.376;6.126;2023-04-27T08:24:45;101746.00;;;16.10
15626;BMP180;7912;51.376;6.126;2023-04-27T08:27:12;101742.00;;;16.10
15626;BMP180;7912;51.376;6.126;2023-04-27T08:29:47;101750.00;;;16.10
15626;BMP180;7912;51.376;6.126;2023-04-27T08:32:15;101745.00;;;16.20
15626;BMP180;7912;51.376;6.126;2023-04-27T08:34:42;101742.00;;;16.50
15626;BMP180;7912;51.376;6.126;2023-04-27T08:37:11;101748.00;;;16.90
15626;BMP180;7912;51.376;6.126;2023-04-27T08:39:39;101739.00;;;17.40
15626;BMP180;7912;51.376;6.126;2023-04-27T08:42:11;101740.00;;;18.10
15626;BMP180;7912;51.376;6.126;2023-04-27T08:44:43;101735.00;;;18.80
15626;BMP180;7912;51.376;6.126;2023-04-27T08:47:10;101736.00;;;19.50
15626;BMP180;7912;51.376;6.126;2023-04-27T08:49:38;101725.00;;;20.20
15626;BMP180;7912;51.376;6.126;2023-04-27T08:52:14;101721.00;;;20.70
15626;BMP180;7912;51.376;6.126;2023-04-27T08:54:42;101714.00;;;21.10
15626;BMP180;7912;51.376;6.126;2023-04-27T08:57:14;101710.00;;;21.20
15626;BMP180;7912;51.376;6.126;2023-04-27T08:59:42;101718.00;;;21.30
15626;BMP180;7912;51.376;6.126;2023-04-27T09:02:20;101716.00;;;21.20
15626;BMP180;7912;51.376;6.126;2023-04-27T09:04:47;101698.00;;;21.30
15626;BMP180;7912;51.376;6.126;2023-04-27T09:07:16;101708.00;;;21.60
15626;BMP180;7912;51.376;6.126;2023-04-27T09:09:44;101708.00;;;22.00
15626;BMP180;7912;51.376;6.126;2023-04-27T09:12:19;101706.00;;;22.30
15626;BMP180;7912;51.376;6.126;2023-04-27T09:15:01;101709.00;;;22.20
15626;BMP180;7912;51.376;6.126;2023-04-27T09:17:30;101699.00;;;22.30
15626;BMP180;7912;51.376;6.126;2023-04-27T09:20:08;101704.00;;;22.50
15626;BMP180;7912;51.376;6.126;2023-04-27T09:22:53;101707.00;;;22.60
15626;BMP180;7912;51.376;6.126;2023-04-27T09:27:50;101702.00;;;23.00
15626;BMP180;7912;51.376;6.126;2023-04-27T09:30:18;101704.00;;;23.30
15626;BMP180;7912;51.376;6.126;2023-04-27T09:32:59;101705.00;;;23.20
15626;BMP180;7912;51.376;6.126;2023-04-27T09:35:31;101714.00;;;22.90
15626;BMP180;7912;51.376;6.126;2023-04-27T09:38:00;101700.00;;;22.40
15626;BMP180;7912;51.376;6.126;2023-04-27T09:40:28;101704.00;;;22.30
15626;BMP180;7912;51.376;6.126;2023-04-27T09:43:00;101703.00;;;22.20
15626;BMP180;7912;51.376;6.126;2023-04-27T09:45:28;101694.00;;;22.30
15626;BMP180;7912;51.376;6.126;2023-04-27T09:47:57;101692.00;;;22.50
15626;BMP180;7912;51.376;6.126;2023-04-27T09:50:24;101702.00;;;22.60
15626;BMP180;7912;51.376;6.126;2023-04-27T09:52:52;101701.00;;;22.70
15626;BMP180;7912;51.376;6.126;2023-04-27T09:55:26;101699.00;;;22.70
15626;BMP180;7912;51.376;6.126;2023-04-27T09:57:57;101697.00;;;22.60
15626;BMP180;7912;51.376;6.126;2023-04-27T10:00:47;101688.00;;;22.50
15626;BMP180;7912;51.376;6.126;2023-04-27T10:08:49;101689.00;;;22.20
15626;BMP180;7912;51.376;6.126;2023-04-27T10:11:17;101688.00;;;22.30
15626;BMP180;7912;51.376;6.126;2023-04-27T10:13:53;101686.00;;;22.40
15626;BMP180;7912;51.376;6.126;2023-04-27T10:16:21;101686.00;;;22.40
15626;BMP180;7912;51.376;6.126;2023-04-27T10:18:54;101676.00;;;22.70
15626;BMP180;7912;51.376;6.126;2023-04-27T10:21:21;101681.00;;;22.80
15626;BMP180;7912;51.376;6.126;2023-04-27T10:23:51;101682.00;;;22.80
15626;BMP180;7912;51.376;6.126;2023-04-27T10:26:26;101694.00;;;22.70
15626;BMP180;7912;51.376;6.126;2023-04-27T10:29:07;101684.00;;;22.70
15626;BMP180;7912;51.376;6.126;2023-04-27T10:31:42;101684.00;;;22.60
15626;BMP180;7912;51.376;6.126;2023-04-27T10:34:15;101691.00;;;22.40
15626;BMP180;7912;51.376;6.126;2023-04-27T10:36:47;101685.00;;;22.10
15626;BMP180;7912;51.376;6.126;2023-04-27T10:39:22;101684.00;;;21.90
15626;BMP180;7912;51.376;6.126;2023-04-27T10:42:12;101689.00;;;21.60
15626;BMP180;7912;51.376;6.126;2023-04-27T10:44:39;101688.00;;;21.50
15626;BMP180;7912;51.376;6.126;2023-04-27T10:47:17;101696.00;;;21.50
15626;BMP180;7912;51.376;6.126;2023-04-27T10:49:52;101688.00;;;21.40
15626;BMP180;7912;51.376;6.126;2023-04-27T10:52:20;101697.00;;;21.40
15626;BMP180;7912;51.376;6.126;2023-04-27T10:54:47;101693.00;;;21.50
15626;BMP180;7912;51.376;6.126;2023-04-27T10:57:15;101697.00;;;21.50
15626;BMP180;7912;51.376;6.126;2023-04-27T10:59:50;101692.00;;;21.60
15626;BMP180;7912;51.376;6.126;2023-04-27T11:02:26;101688.00;;;21.70
15626;BMP180;7912;51.376;6.126;2023-04-27T11:04:55;101686.00;;;21.90
15626;BMP180;7912;51.376;6.126;2023-04-27T11:07:25;101674.00;;;22.10
15626;BMP180;7912;51.376;6.126;2023-04-27T11:10:19;101678.00;;;22.20
15626;BMP180;7912;51.376;6.126;2023-04-27T11:12:47;101680.00;;;22.40
15626;BMP180;7912;51.376;6.126;2023-04-27T11:15:14;101672.00;;;22.60
15626;BMP180;7912;51.376;6.126;2023-04-27T11:17:41;101671.00;;;22.80
15626;BMP180;7912;51.376;6.126;2023-04-27T11:20:09;101666.00;;;22.90
15626;BMP180;7912;51.376;6.126;2023-04-27T11:22:44;101666.00;;;23.00
15626;BMP180;7912;51.376;6.126;2023-04-27T11:25:12;101660.00;;;23.30
15626;BMP180;7912;51.376;6.126;2023-04-27T11:27:40;101655.00;;;23.40
15626;BMP180;7912;51.376;6.126;2023-04-27T11:30:20;101649.00;;;23.70
15626;BMP180;7912;51.376;6.126;2023-04-27T11:32:48;101642.00;;;24.30
15626;BMP180;7912;51.376;6.126;2023-04-27T11:35:17;101639.00;;;24.80
15626;BMP180;7912;51.376;6.126;2023-04-27T11:37:54;101635.00;;;24.60
15626;BMP180;7912;51.376;6.126;2023-04-27T11:40:25;101636.00;;;24.50
15626;BMP180;7912;51.376;6.126;2023-04-27T11:42:58;101641.00;;;24.50
15626;BMP180;7912;51.376;6.126;2023-04-27T11:45:26;101628.00;;;24.80
15626;BMP180;7912;51.376;6.126;2023-04-27T11:47:54;101621.00;;;25.30
15626;BMP180;7912;51.376;6.126;2023-04-27T11:50:24;101636.00;;;25.40
15626;BMP180;7912;51.376;6.126;2023-04-27T11:52:52;101631.00;;;25.20
15626;BMP180;7912;51.376;6.126;2023-04-27T11:55:21;101625.00;;;25.20
15626;BMP180;7912;51.376;6.126;2023-04-27T11:57:48;101618.00;;;25.20
15626;BMP180;7912;51.376;6.126;2023-04-27T12:00:16;101609.00;;;25.40
15626;BMP180;7912;51.376;6.126;2023-04-27T12:02:44;101615.00;;;25.50
15626;BMP180;7912;51.376;6.126;2023-04-27T12:05:11;101615.00;;;25.40
15626;BMP180;7912;51.376;6.126;2023-04-27T12:07:40;101612.00;;;25.30
15626;BMP180;7912;51.376;6.126;2023-04-27T12:10:09;101620.00;;;25.20
15626;BMP180;7912;51.376;6.126;2023-04-27T12:12:37;101628.00;;;24.90
15626;BMP180;7912;51.376;6.126;2023-04-27T12:15:05;101631.00;;;24.80
15626;BMP180;7912;51.376;6.126;2023-04-27T12:17:34;101631.00;;;24.60
15626;BMP180;7912;51.376;6.126;2023-04-27T12:20:02;101625.00;;;24.40
15626;BMP180;7912;51.376;6.126;2023-04-27T12:22:29;101617.00;;;24.30
15626;BMP180;7912;51.376;6.126;2023-04-27T12:24:56;101612.00;;;24.50
15626;BMP180;7912;51.376;6.126;2023-04-27T12:27:23;101609.00;;;24.70
15626;BMP180;7912;51.376;6.126;2023-04-27T12:29:52;101602.00;;;24.80
15626;BMP180;7912;51.376;6.126;2023-04-27T12:32:24;101598.00;;;25.00
15626;BMP180;7912;51.376;6.126;2023-04-27T12:34:51;101608.00;;;25.10
15626;BMP180;7912;51.376;6.126;2023-04-27T12:37:19;101597.00;;;25.30
15626;BMP180;7912;51.376;6.126;2023-04-27T12:39:47;101608.00;;;25.50
15626;BMP180;7912;51.376;6.126;2023-04-27T12:42:14;101608.00;;;25.60
15626;BMP180;7912;51.376;6.126;2023-04-27T12:44:45;101596.00;;;25.70
15626;BMP180;7912;51.376;6.126;2023-04-27T12:47:13;101599.00;;;25.80
15626;BMP180;7912;51.376;6.126;2023-04-27T12:50:00;101599.00;;;25.70
15626;BMP180;7912;51.376;6.126;2023-04-27T12:52:28;101594.00;;;25.80
15626;BMP180;7912;51.376;6.126;2023-04-27T12:54:55;101582.00;;;25.90
15626;BMP180;7912;51.376;6.126;2023-04-27T12:57:25;101581.00;;;26.30
15626;BMP180;7912;51.376;6.126;2023-04-27T12:59:53;101584.00;;;26.70
15626;BMP180;7912;51.376;6.126;2023-04-27T13:02:20;101583.00;;;27.00
15626;BMP180;7912;51.376;6.126;2023-04-27T13:04:48;101585.00;;;26.90
15626;BMP180;7912;51.376;6.126;2023-04-27T13:07:53;101590.00;;;26.40
15626;BMP180;7912;51.376;6.126;2023-04-27T13:10:20;101588.00;;;26.10
15626;BMP180;7912;51.376;6.126;2023-04-27T13:12:47;101586.00;;;25.90
15626;BMP180;7912;51.376;6.126;2023-04-27T13:15:15;101588.00;;;25.90
15626;BMP180;7912;51.376;6.126;2023-04-27T13:17:42;101587.00;;;25.80
15626;BMP180;7912;51.376;6.126;2023-04-27T13:20:10;101585.00;;;26.00
15626;BMP180;7912;51.376;6.126;2023-04-27T13:22:38;101588.00;;;26.10
15626;BMP180;7912;51.376;6.126;2023-04-27T13:25:07;101587.00;;;26.10
15626;BMP180;7912;51.376;6.126;2023-04-27T13:27:35;101586.00;;;26.10
15626;BMP180;7912;51.376;6.126;2023-04-27T13:30:03;101584.00;;;26.10
15626;BMP180;7912;51.376;6.126;2023-04-27T13:32:31;101572.00;;;26.20
15626;BMP180;7912;51.376;6.126;2023-04-27T13:34:58;101574.00;;;26.10
15626;BMP180;7912;51.376;6.126;2023-04-27T13:37:25;101575.00;;;26.00
15626;BMP180;7912;51.376;6.126;2023-04-27T13:39:53;101563.00;;;26.30
15626;BMP180;7912;51.376;6.126;2023-04-27T13:42:20;101561.00;;;26.60
15626;BMP180;7912;51.376;6.126;2023-04-27T13:44:50;101556.00;;;26.70
15626;BMP180;7912;51.376;6.126;2023-04-27T13:47:17;101557.00;;;26.60
15626;BMP180;7912;51.376;6.126;2023-04-27T13:49:45;101555.00;;;26.40
15626;BMP180;7912;51.376;6.126;2023-04-27T13:52:12;101560.00;;;26.00
15626;BMP180;7912;51.376;6.126;2023-04-27T13:54:40;101553.00;;;25.60
15626;BMP180;7912;51.376;6.126;2023-04-27T13:57:07;101548.00;;;25.30
15626;BMP180;7912;51.376;6.126;2023-04-27T13:59:35;101546.00;;;25.20
15626;BMP180;7912;51.376;6.126;2023-04-27T14:02:02;101526.00;;;25.30
15626;BMP180;7912;51.376;6.126;2023-04-27T14:04:29;101541.00;;;25.30
15626;BMP180;7912;51.376;6.126;2023-04-27T14:06:57;101534.00;;;25.40
15626;BMP180;7912;51.376;6.126;2023-04-27T14:09:24;101542.00;;;25.60
15626;BMP180;7912;51.376;6.126;2023-04-27T14:11:54;101538.00;;;25.70
15626;BMP180;7912;51.376;6.126;2023-04-27T14:14:23;101531.00;;;25.60
15626;BMP180;7912;51.376;6.126;2023-04-27T14:16:52;101523.00;;;25.40
15626;BMP180;7912;51.376;6.126;2023-04-27T14:19:19;101522.00;;;25.30
15626;BMP180;7912;51.376;6.126;2023-04-27T14:21:51;101516.00;;;25.30
15626;BMP180;7912;51.376;6.126;2023-04-27T14:24:18;101511.00;;;25.20
15626;BMP180;7912;51.376;6.126;2023-04-27T14:26:46;101507.00;;;25.10
15626;BMP180;7912;51.376;6.126;2023-04-27T14:29:14;101500.00;;;24.80
15626;BMP180;7912;51.376;6.126;2023-04-27T14:31:43;101501.00;;;24.60
15626;BMP180;7912;51.376;6.126;2023-04-27T14:34:11;101505.00;;;24.40
15626;BMP180;7912;51.376;6.126;2023-04-27T14:36:40;101508.00;;;24.10
15626;BMP180;7912;51.376;6.126;2023-04-27T14:39:07;101506.00;;;23.90
15626;BMP180;7912;51.376;6.126;2023-04-27T14:41:37;101494.00;;;23.60